TimeCDT,TemperatureF,Dew PointF,Humidity,Sea Level PressureIn,VisibilityMPH,Wind Direction,Wind SpeedMPH,Gust SpeedMPH,PrecipitationIn,Events,Conditions,WindDirDegrees,DateUTC
12:15 AM,71.6,64.4,78,30.02,10.0,NNE,3.5,-,N/A,,Clear,30,2013-07-27 05:15:00
12:35 AM,71.6,64.4,78,30.01,10.0,ENE,3.5,-,N/A,,Clear,60,2013-07-27 05:35:00
12:55 AM,71.6,64.4,78,30.01,10.0,Calm,Calm,-,N/A,,Clear,0,2013-07-27 05:55:00
1:15 AM,69.8,64.4,83,30.01,10.0,Calm,Calm,-,N/A,,Clear,0,2013-07-27 06:15:00
1:35 AM,69.8,64.4,83,30.01,10.0,Calm,Calm,-,N/A,,Clear,0,2013-07-27 06:35:00
1:55 AM,69.8,66.2,88,30.01,10.0,Calm,Calm,-,N/A,,Clear,0,2013-07-27 06:55:00
2:15 AM,69.8,64.4,83,30.01,10.0,Calm,Calm,-,N/A,,Clear,0,2013-07-27 07:15:00
2:35 AM,68.0,64.4,88,30.01,10.0,NE,3.5,-,N/A,,Clear,50,2013-07-27 07:35:00
2:55 AM,66.2,64.4,94,30.00,10.0,Calm,Calm,-,N/A,,Clear,0,2013-07-27 07:55:00
3:15 AM,68.0,64.4,88,30.00,10.0,Calm,Calm,-,N/A,,Clear,0,2013-07-27 08:15:00
3:35 AM,68.0,64.4,88,29.99,10.0,Calm,Calm,-,N/A,,Clear,0,2013-07-27 08:35:00
3:55 AM,68.0,64.4,88,29.99,10.0,Calm,Calm,-,N/A,,Scattered Clouds,0,2013-07-27 08:55:00
4:15 AM,68.0,64.4,88,30.00,10.0,NNE,3.5,-,N/A,,Mostly Cloudy,30,2013-07-27 09:15:00
4:35 AM,66.2,64.4,94,30.00,10.0,Calm,Calm,-,N/A,,Scattered Clouds,0,2013-07-27 09:35:00
4:55 AM,68.0,64.4,88,30.00,10.0,Calm,Calm,-,N/A,,Scattered Clouds,0,2013-07-27 09:55:00
5:15 AM,68.0,64.4,88,30.00,10.0,Calm,Calm,-,N/A,,Scattered Clouds,0,2013-07-27 10:15:00
5:35 AM,68.0,64.4,88,30.00,10.0,Calm,Calm,-,N/A,,Clear,0,2013-07-27 10:35:00
5:55 AM,68.0,64.4,88,30.00,10.0,Calm,Calm,-,N/A,,Clear,0,2013-07-27 10:55:00
6:15 AM,68.0,64.4,88,30.00,10.0,Calm,Calm,-,N/A,,Clear,0,2013-07-27 11:15:00
6:35 AM,69.8,64.4,83,30.00,10.0,Calm,Calm,-,N/A,,Clear,0,2013-07-27 11:35:00
6:55 AM,69.8,64.4,83,30.00,10.0,Calm,Calm,-,N/A,,Clear,0,2013-07-27 11:55:00
7:15 AM,69.8,64.4,83,30.00,10.0,North,3.5,-,N/A,,Clear,10,2013-07-27 12:15:00
7:35 AM,69.8,66.2,88,30.00,10.0,ENE,3.5,-,N/A,,Clear,70,2013-07-27 12:35:00
7:55 AM,69.8,64.4,83,30.00,10.0,Calm,Calm,-,N/A,,Clear,0,2013-07-27 12:55:00
8:15 AM,71.6,64.4,78,30.00,10.0,East,3.5,-,N/A,,Clear,90,2013-07-27 13:15:00
8:35 AM,71.6,64.4,78,30.01,10.0,East,3.5,-,N/A,,Partly Cloudy,90,2013-07-27 13:35:00
8:55 AM,71.6,64.4,78,30.01,10.0,East,3.5,-,N/A,,Clear,100,2013-07-27 13:55:00
9:15 AM,73.4,66.2,78,30.00,10.0,SE,4.6,-,N/A,,Clear,130,2013-07-27 14:15:00
9:35 AM,73.4,66.2,78,30.00,10.0,Calm,Calm,-,N/A,,Scattered Clouds,0,2013-07-27 14:35:00
9:55 AM,75.2,66.2,73,30.00,10.0,Calm,Calm,-,N/A,,Scattered Clouds,0,2013-07-27 14:55:00
10:15 AM,77.0,66.2,69,30.00,10.0,Calm,Calm,-,N/A,,Partly Cloudy,0,2013-07-27 15:15:00
10:35 AM,78.8,66.2,65,30.00,10.0,SSE,4.6,-,N/A,,Partly Cloudy,160,2013-07-27 15:35:00
10:55 AM,78.8,66.2,65,30.00,10.0,SSW,3.5,-,N/A,,Partly Cloudy,200,2013-07-27 15:55:00
11:15 AM,80.6,66.2,61,30.00,10.0,WSW,5.8,-,N/A,,Partly Cloudy,240,2013-07-27 16:15:00
11:35 AM,80.6,66.2,61,29.99,10.0,SW,6.9,-,N/A,,Clear,230,2013-07-27 16:35:00
11:55 AM,82.4,66.2,58,29.99,10.0,WSW,8.1,-,N/A,,Partly Cloudy,240,2013-07-27 16:55:00
12:15 PM,82.4,66.2,58,29.98,10.0,SW,6.9,-,N/A,,Partly Cloudy,230,2013-07-27 17:15:00
12:35 PM,82.4,66.2,58,29.97,10.0,WSW,10.4,-,N/A,,Scattered Clouds,250,2013-07-27 17:35:00
12:55 PM,82.4,66.2,58,29.98,10.0,WNW,4.6,-,N/A,,Mostly Cloudy,290,2013-07-27 17:55:00
1:15 PM,80.6,66.2,61,29.97,10.0,NNW,3.5,-,N/A,,Scattered Clouds,330,2013-07-27 18:15:00
1:35 PM,80.6,66.2,61,29.97,10.0,NNW,6.9,-,N/A,,Mostly Cloudy,330,2013-07-27 18:35:00
1:55 PM,80.6,66.2,61,29.96,10.0,WNW,9.2,-,N/A,,Mostly Cloudy,300,2013-07-27 18:55:00
2:15 PM,80.6,66.2,61,29.96,10.0,West,8.1,-,N/A,,Partly Cloudy,280,2013-07-27 19:15:00
2:35 PM,80.6,66.2,61,29.95,10.0,WNW,6.9,-,N/A,,Clear,290,2013-07-27 19:35:00
2:55 PM,82.4,66.2,58,29.95,10.0,West,5.8,-,N/A,,Clear,280,2013-07-27 19:55:00
3:15 PM,82.4,66.2,58,29.94,10.0,West,8.1,-,N/A,,Clear,270,2013-07-27 20:15:00
3:35 PM,82.4,66.2,58,29.94,10.0,West,8.1,-,N/A,,Clear,280,2013-07-27 20:35:00
3:55 PM,82.4,66.2,58,29.94,10.0,West,5.8,-,N/A,,Partly Cloudy,270,2013-07-27 20:55:00
4:15 PM,82.4,66.2,58,29.93,10.0,WNW,3.5,-,N/A,,Scattered Clouds,300,2013-07-27 21:15:00
4:35 PM,80.6,66.2,61,29.93,10.0,NW,6.9,-,N/A,,Mostly Cloudy,320,2013-07-27 21:35:00
4:55 PM,82.4,66.2,58,29.93,10.0,West,6.9,-,N/A,,Partly Cloudy,280,2013-07-27 21:55:00
5:15 PM,80.6,66.2,61,29.93,10.0,WNW,5.8,-,N/A,,Partly Cloudy,300,2013-07-27 22:15:00
5:35 PM,82.4,68.0,62,29.93,10.0,WNW,10.4,-,N/A,,Mostly Cloudy,300,2013-07-27 22:35:00
5:55 PM,78.8,68.0,69,29.93,10.0,North,6.9,-,N/A,,Partly Cloudy,360,2013-07-27 22:55:00
6:15 PM,78.8,68.0,69,29.94,10.0,NNW,5.8,-,N/A,,Clear,340,2013-07-27 23:15:00
6:35 PM,78.8,68.0,69,29.94,10.0,NNW,4.6,-,N/A,,Clear,330,2013-07-27 23:35:00
6:55 PM,78.8,68.0,69,29.94,10.0,North,4.6,-,N/A,,Mostly Cloudy,360,2013-07-27 23:55:00
7:15 PM,77.0,66.2,69,29.95,10.0,NNE,4.6,-,N/A,,Partly Cloudy,20,2013-07-28 00:15:00
7:35 PM,75.2,68.0,78,29.95,10.0,Calm,Calm,-,N/A,,Clear,0,2013-07-28 00:35:00
7:55 PM,75.2,66.2,73,29.95,10.0,Calm,Calm,-,N/A,,Clear,0,2013-07-28 00:55:00
8:15 PM,73.4,68.0,83,29.96,10.0,North,3.5,-,N/A,,Clear,360,2013-07-28 01:15:00
8:35 PM,71.6,68.0,88,29.96,10.0,Calm,Calm,-,N/A,,Mostly Cloudy,0,2013-07-28 01:35:00
8:55 PM,71.6,68.0,88,29.96,10.0,Calm,Calm,-,N/A,,Mostly Cloudy,0,2013-07-28 01:55:00
9:15 PM,71.6,68.0,88,29.97,10.0,Calm,Calm,-,N/A,,Partly Cloudy,0,2013-07-28 02:15:00
9:35 PM,71.6,68.0,88,29.97,10.0,Calm,Calm,-,N/A,,Clear,0,2013-07-28 02:35:00
9:55 PM,71.6,66.2,83,29.97,10.0,Calm,Calm,-,N/A,,Clear,0,2013-07-28 02:55:00
10:15 PM,69.8,66.2,88,29.97,10.0,Calm,Calm,-,N/A,,Partly Cloudy,0,2013-07-28 03:15:00
10:35 PM,69.8,66.2,88,29.97,7.0,Calm,Calm,-,N/A,,Partly Cloudy,0,2013-07-28 03:35:00
10:55 PM,69.8,66.2,88,29.98,7.0,Calm,Calm,-,N/A,,Clear,0,2013-07-28 03:55:00
11:15 PM,68.0,66.2,94,29.98,6.0,Calm,Calm,-,N/A,,Clear,0,2013-07-28 04:15:00
11:35 PM,68.0,64.4,88,29.98,8.0,Calm,Calm,-,N/A,,Scattered Clouds,0,2013-07-28 04:35:00
11:55 PM,69.8,66.2,88,29.98,9.0,Calm,Calm,-,N/A,,Mostly Cloudy,0,2013-07-28 04:55:00